sensor_id;sensor_type;location;lat;lon;timestamp;P1;durP1;ratioP1;P2;durP2;ratioP2
39502;SDS011;26970;49.900;10.774;2023-03-14T00:02:22;2.22;;;1.23;;
39502;SDS011;26970;49.900;10.774;2023-03-14T00:04:47;1.58;;;1.10;;
39502;SDS011;26970;49.900;10.774;2023-03-14T00:07:13;1.23;;;1.13;;
39502;SDS011;26970;49.900;10.774;2023-03-14T00:09:39;1.88;;;1.30;;
39502;SDS011;26970;49.900;10.774;2023-03-14T00:12:05;2.35;;;1.02;;
39502;SDS011;26970;49.900;10.774;2023-03-14T00:14:32;1.15;;;1.05;;
39502;SDS011;26970;49.900;10.774;2023-03-14T00:16:58;1.08;;;1.00;;
39502;SDS011;26970;49.900;10.774;2023-03-14T00:19:23;1.60;;;1.50;;
39502;SDS011;26970;49.900;10.774;2023-03-14T00:21:49;2.40;;;1.42;;
39502;SDS011;26970;49.900;10.774;2023-03-14T00:24:14;2.50;;;1.10;;
39502;SDS011;26970;49.900;10.774;2023-03-14T00:26:40;1.20;;;1.10;;
39502;SDS011;26970;49.900;10.774;2023-03-14T00:29:06;1.20;;;1.10;;
39502;SDS011;26970;49.900;10.774;2023-03-14T00:31:31;1.48;;;1.10;;
39502;SDS011;26970;49.900;10.774;2023-03-14T00:33:57;1.25;;;1.15;;
39502;SDS011;26970;49.900;10.774;2023-03-14T00:36:23;1.05;;;0.90;;
39502;SDS011;26970;49.900;10.774;2023-03-14T00:38:49;1.98;;;1.10;;
39502;SDS011;26970;49.900;10.774;2023-03-14T00:41:20;1.40;;;1.00;;
39502;SDS011;26970;49.900;10.774;2023-03-14T00:43:47;1.58;;;1.02;;
39502;SDS011;26970;49.900;10.774;2023-03-14T00:46:13;1.25;;;0.85;;
39502;SDS011;26970;49.900;10.774;2023-03-14T00:48:39;1.95;;;0.90;;
39502;SDS011;26970;49.900;10.774;2023-03-14T00:51:05;1.45;;;0.98;;
39502;SDS011;26970;49.900;10.774;2023-03-14T00:53:36;3.00;;;1.17;;
39502;SDS011;26970;49.900;10.774;2023-03-14T00:56:03;2.20;;;1.08;;
39502;SDS011;26970;49.900;10.774;2023-03-14T00:58:34;1.00;;;0.90;;
39502;SDS011;26970;49.900;10.774;2023-03-14T01:01:04;1.35;;;1.00;;
39502;SDS011;26970;49.900;10.774;2023-03-14T01:06:14;1.05;;;0.90;;
39502;SDS011;26970;49.900;10.774;2023-03-14T01:08:45;0.93;;;0.90;;
39502;SDS011;26970;49.900;10.774;2023-03-14T01:11:12;1.10;;;0.93;;
39502;SDS011;26970;49.900;10.774;2023-03-14T01:13:40;1.02;;;0.90;;
39502;SDS011;26970;49.900;10.774;2023-03-14T01:16:07;0.90;;;0.90;;
39502;SDS011;26970;49.900;10.774;2023-03-14T01:18:35;1.38;;;1.25;;
39502;SDS011;26970;49.900;10.774;2023-03-14T01:21:02;1.30;;;0.98;;
39502;SDS011;26970;49.900;10.774;2023-03-14T01:23:29;1.30;;;0.80;;
39502;SDS011;26970;49.900;10.774;2023-03-14T01:25:54;1.00;;;0.82;;
39502;SDS011;26970;49.900;10.774;2023-03-14T01:28:20;1.38;;;1.00;;
39502;SDS011;26970;49.900;10.774;2023-03-14T01:30:45;1.13;;;1.00;;
39502;SDS011;26970;49.900;10.774;2023-03-14T01:33:11;1.00;;;0.90;;
39502;SDS011;26970;49.900;10.774;2023-03-14T01:35:39;1.10;;;1.00;;
39502;SDS011;26970;49.900;10.774;2023-03-14T01:38:04;1.25;;;0.90;;
39502;SDS011;26970;49.900;10.774;2023-03-14T01:40:30;0.95;;;0.90;;
39502;SDS011;26970;49.900;10.774;2023-03-14T01:42:57;0.70;;;0.70;;
39502;SDS011;26970;49.900;10.774;2023-03-14T01:51:01;1.27;;;1.00;;
39502;SDS011;26970;49.900;10.774;2023-03-14T01:53:29;1.02;;;0.85;;
39502;SDS011;26970;49.900;10.774;2023-03-14T01:55:55;1.45;;;1.10;;
39502;SDS011;26970;49.900;10.774;2023-03-14T01:58:22;1.40;;;0.95;;
39502;SDS011;26970;49.900;10.774;2023-03-14T02:00:50;1.42;;;1.10;;
39502;SDS011;26970;49.900;10.774;2023-03-14T02:03:16;3.13;;;1.27;;
39502;SDS011;26970;49.900;10.774;2023-03-14T02:05:45;1.75;;;1.00;;
39502;SDS011;26970;49.900;10.774;2023-03-14T02:08:13;1.60;;;1.13;;
39502;SDS011;26970;49.900;10.774;2023-03-14T02:10:42;1.60;;;1.08;;
39502;SDS011;26970;49.900;10.774;2023-03-14T02:13:10;2.42;;;1.35;;
39502;SDS011;26970;49.900;10.774;2023-03-14T02:15:37;1.38;;;1.10;;
39502;SDS011;26970;49.900;10.774;2023-03-14T02:18:04;1.35;;;1.17;;
39502;SDS011;26970;49.900;10.774;2023-03-14T02:20:34;2.08;;;1.30;;
39502;SDS011;26970;49.900;10.774;2023-03-14T02:23:05;1.17;;;1.00;;
39502;SDS011;26970;49.900;10.774;2023-03-14T02:25:34;1.13;;;1.00;;
39502;SDS011;26970;49.900;10.774;2023-03-14T02:28:14;2.35;;;1.23;;
39502;SDS011;26970;49.900;10.774;2023-03-14T02:30:40;3.33;;;1.23;;
39502;SDS011;26970;49.900;10.774;2023-03-14T02:33:08;6.57;;;1.30;;
39502;SDS011;26970;49.900;10.774;2023-03-14T02:35:37;1.13;;;1.00;;
39502;SDS011;26970;49.900;10.774;2023-03-14T02:38:10;2.92;;;1.33;;
39502;SDS011;26970;49.900;10.774;2023-03-14T02:40:47;2.72;;;1.13;;
39502;SDS011;26970;49.900;10.774;2023-03-14T02:43:13;3.53;;;1.20;;
39502;SDS011;26970;49.900;10.774;2023-03-14T02:48:24;1.33;;;1.20;;
39502;SDS011;26970;49.900;10.774;2023-03-14T02:50:55;1.38;;;1.17;;
39502;SDS011;26970;49.900;10.774;2023-03-14T02:53:30;2.53;;;1.30;;
39502;SDS011;26970;49.900;10.774;2023-03-14T02:55:57;2.85;;;1.02;;
39502;SDS011;26970;49.900;10.774;2023-03-14T02:58:23;4.15;;;1.27;;
39502;SDS011;26970;49.900;10.774;2023-03-14T03:00:49;1.88;;;1.20;;
39502;SDS011;26970;49.900;10.774;2023-03-14T03:03:14;2.22;;;1.25;;
39502;SDS011;26970;49.900;10.774;2023-03-14T03:05:40;1.98;;;1.15;;
39502;SDS011;26970;49.900;10.774;2023-03-14T03:08:07;2.88;;;1.33;;
39502;SDS011;26970;49.900;10.774;2023-03-14T03:10:33;2.90;;;1.20;;
39502;SDS011;26970;49.900;10.774;2023-03-14T03:12:59;1.00;;;0.90;;
39502;SDS011;26970;49.900;10.774;2023-03-14T03:15:25;2.85;;;1.08;;
39502;SDS011;26970;49.900;10.774;2023-03-14T03:17:51;3.45;;;1.50;;
39502;SDS011;26970;49.900;10.774;2023-03-14T03:20:17;2.00;;;1.33;;
39502;SDS011;26970;49.900;10.774;2023-03-14T03:22:42;1.52;;;1.20;;
39502;SDS011;26970;49.900;10.774;2023-03-14T03:25:08;3.25;;;1.15;;
39502;SDS011;26970;49.900;10.774;2023-03-14T03:27:34;1.73;;;1.02;;
39502;SDS011;26970;49.900;10.774;2023-03-14T03:30:00;2.55;;;1.38;;
39502;SDS011;26970;49.900;10.774;2023-03-14T03:32:26;3.35;;;1.33;;
39502;SDS011;26970;49.900;10.774;2023-03-14T03:34:52;2.25;;;1.23;;
39502;SDS011;26970;49.900;10.774;2023-03-14T03:37:18;2.40;;;1.35;;
39502;SDS011;26970;49.900;10.774;2023-03-14T03:39:44;3.67;;;1.20;;
39502;SDS011;26970;49.900;10.774;2023-03-14T03:42:09;1.50;;;1.20;;
39502;SDS011;26970;49.900;10.774;2023-03-14T03:44:35;3.15;;;1.35;;
39502;SDS011;26970;49.900;10.774;2023-03-14T03:47:01;2.95;;;1.30;;
39502;SDS011;26970;49.900;10.774;2023-03-14T03:49:31;2.60;;;1.42;;
39502;SDS011;26970;49.900;10.774;2023-03-14T03:51:57;1.60;;;1.30;;
39502;SDS011;26970;49.900;10.774;2023-03-14T03:54:24;1.88;;;1.35;;
39502;SDS011;26970;49.900;10.774;2023-03-14T03:56:50;2.42;;;1.45;;
39502;SDS011;26970;49.900;10.774;2023-03-14T03:59:15;1.92;;;1.30;;
39502;SDS011;26970;49.900;10.774;2023-03-14T04:01:41;4.35;;;1.45;;
39502;SDS011;26970;49.900;10.774;2023-03-14T04:04:07;2.92;;;1.20;;
39502;SDS011;26970;49.900;10.774;2023-03-14T04:06:33;2.17;;;1.30;;
39502;SDS011;26970;49.900;10.774;2023-03-14T04:08:58;1.83;;;1.20;;
39502;SDS011;26970;49.900;10.774;2023-03-14T04:11:24;1.48;;;1.05;;
39502;SDS011;26970;49.900;10.774;2023-03-14T04:13:50;1.80;;;1.23;;
39502;SDS011;26970;49.900;10.774;2023-03-14T04:16:22;3.67;;;0.90;;
39502;SDS011;26970;49.900;10.774;2023-03-14T04:18:49;2.40;;;1.13;;
39502;SDS011;26970;49.900;10.774;2023-03-14T04:21:15;3.85;;;1.40;;
39502;SDS011;26970;49.900;10.774;2023-03-14T04:23:41;2.50;;;1.20;;
39502;SDS011;26970;49.900;10.774;2023-03-14T04:26:07;1.40;;;1.05;;
39502;SDS011;26970;49.900;10.774;2023-03-14T04:28:32;1.90;;;1.30;;
39502;SDS011;26970;49.900;10.774;2023-03-14T04:31:06;2.63;;;1.20;;
39502;SDS011;26970;49.900;10.774;2023-03-14T04:33:35;2.53;;;1.48;;
39502;SDS011;26970;49.900;10.774;2023-03-14T04:36:02;1.80;;;1.50;;
39502;SDS011;26970;49.900;10.774;2023-03-14T04:38:29;1.63;;;1.23;;
39502;SDS011;26970;49.900;10.774;2023-03-14T04:40:54;4.30;;;1.67;;
39502;SDS011;26970;49.900;10.774;2023-03-14T04:43:20;3.30;;;1.45;;
39502;SDS011;26970;49.900;10.774;2023-03-14T04:45:46;6.05;;;2.47;;
39502;SDS011;26970;49.900;10.774;2023-03-14T04:48:11;1.80;;;1.33;;
39502;SDS011;26970;49.900;10.774;2023-03-14T04:50:37;7.50;;;3.30;;
39502;SDS011;26970;49.900;10.774;2023-03-14T04:53:03;2.90;;;1.45;;
39502;SDS011;26970;49.900;10.774;2023-03-14T04:55:29;2.92;;;1.50;;
39502;SDS011;26970;49.900;10.774;2023-03-14T04:57:54;2.35;;;1.50;;
39502;SDS011;26970;49.900;10.774;2023-03-14T05:00:20;2.67;;;1.45;;
39502;SDS011;26970;49.900;10.774;2023-03-14T05:02:45;2.47;;;1.40;;
39502;SDS011;26970;49.900;10.774;2023-03-14T05:05:11;3.17;;;1.42;;
39502;SDS011;26970;49.900;10.774;2023-03-14T05:07:36;3.63;;;1.50;;
39502;SDS011;26970;49.900;10.774;2023-03-14T05:10:02;3.70;;;1.55;;
39502;SDS011;26970;49.900;10.774;2023-03-14T05:12:28;2.20;;;1.50;;
39502;SDS011;26970;49.900;10.774;2023-03-14T05:14:54;3.00;;;1.45;;
39502;SDS011;26970;49.900;10.774;2023-03-14T05:17:19;2.22;;;1.20;;
39502;SDS011;26970;49.900;10.774;2023-03-14T05:19:45;2.85;;;1.35;;
39502;SDS011;26970;49.900;10.774;2023-03-14T05:22:11;1.85;;;1.42;;
39502;SDS011;26970;49.900;10.774;2023-03-14T05:24:37;3.88;;;1.45;;
39502;SDS011;26970;49.900;10.774;2023-03-14T05:27:03;3.85;;;1.33;;
39502;SDS011;26970;49.900;10.774;2023-03-14T05:29:29;1.63;;;1.30;;
39502;SDS011;26970;49.900;10.774;2023-03-14T05:31:54;1.33;;;1.20;;
39502;SDS011;26970;49.900;10.774;2023-03-14T05:34:20;14.80;;;6.00;;
39502;SDS011;26970;49.900;10.774;2023-03-14T05:36:45;37.00;;;14.63;;
39502;SDS011;26970;49.900;10.774;2023-03-14T05:39:11;73.30;;;29.08;;
39502;SDS011;26970;49.900;10.774;2023-03-14T05:41:37;8.82;;;4.22;;
39502;SDS011;26970;49.900;10.774;2023-03-14T05:44:02;15.95;;;6.97;;
39502;SDS011;26970;49.900;10.774;2023-03-14T05:46:28;7.38;;;3.40;;
39502;SDS011;26970;49.900;10.774;2023-03-14T05:48:55;7.22;;;2.10;;
39502;SDS011;26970;49.900;10.774;2023-03-14T05:51:24;3.13;;;1.95;;
39502;SDS011;26970;49.900;10.774;2023-03-14T05:53:51;4.30;;;2.03;;
39502;SDS011;26970;49.900;10.774;2023-03-14T05:56:16;4.22;;;2.10;;
39502;SDS011;26970;49.900;10.774;2023-03-14T05:58:42;3.80;;;2.17;;
39502;SDS011;26970;49.900;10.774;2023-03-14T06:01:08;3.45;;;2.10;;
39502;SDS011;26970;49.900;10.774;2023-03-14T06:03:33;4.50;;;2.92;;
39502;SDS011;26970;49.900;10.774;2023-03-14T06:06:00;9.52;;;5.50;;
39502;SDS011;26970;49.900;10.774;2023-03-14T06:08:26;15.30;;;12.80;;
39502;SDS011;26970;49.900;10.774;2023-03-14T06:10:52;27.15;;;24.23;;
39502;SDS011;26970;49.900;10.774;2023-03-14T06:13:18;11.85;;;9.63;;
39502;SDS011;26970;49.900;10.774;2023-03-14T06:15:44;43.45;;;37.00;;
39502;SDS011;26970;49.900;10.774;2023-03-14T06:18:09;18.25;;;14.73;;
39502;SDS011;26970;49.900;10.774;2023-03-14T06:20:35;10.20;;;7.22;;
39502;SDS011;26970;49.900;10.774;2023-03-14T06:23:04;11.88;;;8.55;;
39502;SDS011;26970;49.900;10.774;2023-03-14T06:25:30;7.78;;;6.53;;
39502;SDS011;26970;49.900;10.774;2023-03-14T06:27:56;9.40;;;7.55;;
39502;SDS011;26970;49.900;10.774;2023-03-14T06:30:22;8.57;;;4.35;;
39502;SDS011;26970;49.900;10.774;2023-03-14T06:32:48;4.07;;;3.10;;
39502;SDS011;26970;49.900;10.774;2023-03-14T06:35:13;5.45;;;3.15;;
39502;SDS011;26970;49.900;10.774;2023-03-14T06:37:39;3.70;;;2.35;;
39502;SDS011;26970;49.900;10.774;2023-03-14T06:40:04;4.07;;;1.90;;
39502;SDS011;26970;49.900;10.774;2023-03-14T06:42:32;4.15;;;1.85;;
39502;SDS011;26970;49.900;10.774;2023-03-14T06:44:58;4.97;;;2.00;;
39502;SDS011;26970;49.900;10.774;2023-03-14T06:47:23;3.38;;;1.85;;
39502;SDS011;26970;49.900;10.774;2023-03-14T06:49:49;3.47;;;2.00;;
39502;SDS011;26970;49.900;10.774;2023-03-14T06:52:14;3.45;;;1.70;;
39502;SDS011;26970;49.900;10.774;2023-03-14T06:54:40;2.83;;;1.85;;
39502;SDS011;26970;49.900;10.774;2023-03-14T06:57:05;2.42;;;1.50;;
39502;SDS011;26970;49.900;10.774;2023-03-14T06:59:31;3.83;;;1.70;;
39502;SDS011;26970;49.900;10.774;2023-03-14T07:01:57;5.35;;;1.40;;
39502;SDS011;26970;49.900;10.774;2023-03-14T07:04:22;4.63;;;1.63;;
39502;SDS011;26970;49.900;10.774;2023-03-14T07:06:48;3.65;;;1.40;;
39502;SDS011;26970;49.900;10.774;2023-03-14T07:09:14;3.00;;;1.40;;
39502;SDS011;26970;49.900;10.774;2023-03-14T07:11:41;2.58;;;1.30;;
39502;SDS011;26970;49.900;10.774;2023-03-14T07:14:07;1.77;;;1.10;;
39502;SDS011;26970;49.900;10.774;2023-03-14T07:16:33;3.05;;;1.42;;
39502;SDS011;26970;49.900;10.774;2023-03-14T07:18:59;1.70;;;1.20;;
39502;SDS011;26970;49.900;10.774;2023-03-14T07:21:25;4.65;;;1.42;;
39502;SDS011;26970;49.900;10.774;2023-03-14T07:23:51;6.30;;;1.30;;
39502;SDS011;26970;49.900;10.774;2023-03-14T07:26:17;2.13;;;1.15;;
39502;SDS011;26970;49.900;10.774;2023-03-14T07:28:42;2.83;;;1.20;;
39502;SDS011;26970;49.900;10.774;2023-03-14T07:31:08;2.05;;;1.20;;
39502;SDS011;26970;49.900;10.774;2023-03-14T07:33:34;1.05;;;0.95;;
39502;SDS011;26970;49.900;10.774;2023-03-14T07:35:59;2.92;;;1.25;;
39502;SDS011;26970;49.900;10.774;2023-03-14T07:38:25;2.33;;;1.38;;
39502;SDS011;26970;49.900;10.774;2023-03-14T07:40:57;6.10;;;1.30;;
39502;SDS011;26970;49.900;10.774;2023-03-14T07:43:26;4.82;;;1.40;;
39502;SDS011;26970;49.900;10.774;2023-03-14T07:45:52;2.95;;;1.17;;
39502;SDS011;26970;49.900;10.774;2023-03-14T07:48:17;1.10;;;1.00;;
39502;SDS011;26970;49.900;10.774;2023-03-14T07:50:43;6.63;;;1.55;;
39502;SDS011;26970;49.900;10.774;2023-03-14T07:53:09;1.70;;;1.13;;
39502;SDS011;26970;49.900;10.774;2023-03-14T07:55:34;3.85;;;1.60;;
39502;SDS011;26970;49.900;10.774;2023-03-14T07:58:00;3.17;;;1.33;;
39502;SDS011;26970;49.900;10.774;2023-03-14T08:00:26;3.25;;;1.30;;
39502;SDS011;26970;49.900;10.774;2023-03-14T08:02:52;3.30;;;1.27;;
39502;SDS011;26970;49.900;10.774;2023-03-14T08:05:17;2.15;;;1.27;;
39502;SDS011;26970;49.900;10.774;2023-03-14T08:07:43;4.40;;;1.25;;
39502;SDS011;26970;49.900;10.774;2023-03-14T08:10:09;3.30;;;1.40;;
39502;SDS011;26970;49.900;10.774;2023-03-14T08:12:35;5.38;;;1.75;;
39502;SDS011;26970;49.900;10.774;2023-03-14T08:15:00;4.80;;;1.13;;
39502;SDS011;26970;49.900;10.774;2023-03-14T08:17:27;3.05;;;1.25;;
39502;SDS011;26970;49.900;10.774;2023-03-14T08:19:52;5.18;;;1.60;;
39502;SDS011;26970;49.900;10.774;2023-03-14T08:22:18;4.80;;;1.75;;
39502;SDS011;26970;49.900;10.774;2023-03-14T08:24:43;2.22;;;1.05;;
39502;SDS011;26970;49.900;10.774;2023-03-14T08:27:09;5.38;;;1.58;;
39502;SDS011;26970;49.900;10.774;2023-03-14T08:29:35;2.60;;;1.13;;
39502;SDS011;26970;49.900;10.774;2023-03-14T08:32:00;7.25;;;1.92;;
39502;SDS011;26970;49.900;10.774;2023-03-14T08:34:26;2.92;;;1.25;;
39502;SDS011;26970;49.900;10.774;2023-03-14T08:36:51;3.70;;;1.70;;
39502;SDS011;26970;49.900;10.774;2023-03-14T08:39:17;1.30;;;1.20;;
39502;SDS011;26970;49.900;10.774;2023-03-14T08:41:42;1.75;;;0.90;;
39502;SDS011;26970;49.900;10.774;2023-03-14T08:44:09;2.15;;;1.20;;
39502;SDS011;26970;49.900;10.774;2023-03-14T08:46:36;3.72;;;1.25;;
39502;SDS011;26970;49.900;10.774;2023-03-14T08:49:02;2.75;;;1.50;;
39502;SDS011;26970;49.900;10.774;2023-03-14T08:51:28;4.93;;;1.40;;
39502;SDS011;26970;49.900;10.774;2023-03-14T08:53:54;3.70;;;1.33;;
39502;SDS011;26970;49.900;10.774;2023-03-14T08:56:20;3.60;;;1.48;;
39502;SDS011;26970;49.900;10.774;2023-03-14T08:58:46;3.00;;;1.20;;
39502;SDS011;26970;49.900;10.774;2023-03-14T09:01:12;1.08;;;0.93;;
39502;SDS011;26970;49.900;10.774;2023-03-14T09:03:37;3.42;;;1.40;;
39502;SDS011;26970;49.900;10.774;2023-03-14T09:06:07;3.42;;;1.10;;
39502;SDS011;26970;49.900;10.774;2023-03-14T09:08:34;2.95;;;1.10;;
39502;SDS011;26970;49.900;10.774;2023-03-14T09:11:01;2.95;;;1.23;;
39502;SDS011;26970;49.900;10.774;2023-03-14T09:13:26;7.57;;;1.75;;
39502;SDS011;26970;49.900;10.774;2023-03-14T09:15:52;3.13;;;0.82;;
39502;SDS011;26970;49.900;10.774;2023-03-14T09:18:19;2.20;;;1.00;;
39502;SDS011;26970;49.900;10.774;2023-03-14T09:20:45;1.77;;;1.08;;
39502;SDS011;26970;49.900;10.774;2023-03-14T09:23:11;4.50;;;1.27;;
39502;SDS011;26970;49.900;10.774;2023-03-14T09:25:36;2.45;;;1.20;;
39502;SDS011;26970;49.900;10.774;2023-03-14T09:28:02;5.63;;;1.25;;
39502;SDS011;26970;49.900;10.774;2023-03-14T09:30:28;2.60;;;1.10;;
39502;SDS011;26970;49.900;10.774;2023-03-14T09:32:53;5.47;;;1.13;;
39502;SDS011;26970;49.900;10.774;2023-03-14T09:35:19;4.57;;;1.73;;
39502;SDS011;26970;49.900;10.774;2023-03-14T09:37:44;4.85;;;1.40;;
39502;SDS011;26970;49.900;10.774;2023-03-14T09:40:11;1.95;;;1.65;;
39502;SDS011;26970;49.900;10.774;2023-03-14T09:42:39;2.13;;;0.88;;
39502;SDS011;26970;49.900;10.774;2023-03-14T09:45:06;3.67;;;1.45;;
39502;SDS011;26970;49.900;10.774;2023-03-14T09:47:49;2.70;;;0.98;;
39502;SDS011;26970;49.900;10.774;2023-03-14T09:50:15;2.83;;;0.90;;
39502;SDS011;26970;49.900;10.774;2023-03-14T09:52:45;2.38;;;1.70;;
39502;SDS011;26970;49.900;10.774;2023-03-14T09:55:15;2.97;;;0.90;;
39502;SDS011;26970;49.900;10.774;2023-03-14T09:57:43;3.30;;;1.40;;
39502;SDS011;26970;49.900;10.774;2023-03-14T10:00:17;0.85;;;0.82;;
39502;SDS011;26970;49.900;10.774;2023-03-14T10:02:56;1.88;;;0.90;;
39502;SDS011;26970;49.900;10.774;2023-03-14T10:05:37;2.65;;;1.05;;
39502;SDS011;26970;49.900;10.774;2023-03-14T10:08:03;1.95;;;1.08;;
39502;SDS011;26970;49.900;10.774;2023-03-14T10:10:29;1.40;;;0.93;;
39502;SDS011;26970;49.900;10.774;2023-03-14T10:13:13;2.25;;;0.85;;
39502;SDS011;26970;49.900;10.774;2023-03-14T10:15:47;1.17;;;0.93;;
39502;SDS011;26970;49.900;10.774;2023-03-14T10:18:16;0.90;;;0.80;;
39502;SDS011;26970;49.900;10.774;2023-03-14T10:20:43;0.70;;;0.70;;
39502;SDS011;26970;49.900;10.774;2023-03-14T10:25:45;0.60;;;0.60;;
39502;SDS011;26970;49.900;10.774;2023-03-14T10:28:32;2.78;;;1.00;;
39502;SDS011;26970;49.900;10.774;2023-03-14T10:31:03;1.75;;;0.90;;
39502;SDS011;26970;49.900;10.774;2023-03-14T10:33:33;2.85;;;0.98;;
39502;SDS011;26970;49.900;10.774;2023-03-14T10:36:02;3.45;;;1.08;;
39502;SDS011;26970;49.900;10.774;2023-03-14T10:38:48;1.13;;;0.80;;
39502;SDS011;26970;49.900;10.774;2023-03-14T10:41:23;4.18;;;1.40;;
39502;SDS011;26970;49.900;10.774;2023-03-14T10:43:56;1.55;;;0.88;;
39502;SDS011;26970;49.900;10.774;2023-03-14T10:46:23;1.15;;;0.80;;
39502;SDS011;26970;49.900;10.774;2023-03-14T10:48:51;1.92;;;0.90;;
39502;SDS011;26970;49.900;10.774;2023-03-14T10:51:19;1.52;;;1.00;;
39502;SDS011;26970;49.900;10.774;2023-03-14T10:54:13;1.13;;;0.90;;
39502;SDS011;26970;49.900;10.774;2023-03-14T10:56:46;1.55;;;0.80;;
39502;SDS011;26970;49.900;10.774;2023-03-14T10:59:22;4.20;;;1.10;;
39502;SDS011;26970;49.900;10.774;2023-03-14T11:07:43;1.13;;;0.90;;
39502;SDS011;26970;49.900;10.774;2023-03-14T11:13:01;2.00;;;0.90;;
39502;SDS011;26970;49.900;10.774;2023-03-14T11:20:55;2.35;;;0.90;;
39502;SDS011;26970;49.900;10.774;2023-03-14T11:23:39;1.58;;;0.90;;
39502;SDS011;26970;49.900;10.774;2023-03-14T11:29:38;1.80;;;0.80;;
39502;SDS011;26970;49.900;10.774;2023-03-14T11:32:36;0.85;;;0.75;;
39502;SDS011;26970;49.900;10.774;2023-03-14T11:35:30;1.23;;;0.73;;
39502;SDS011;26970;49.900;10.774;2023-03-14T11:40:39;1.30;;;0.88;;
39502;SDS011;26970;49.900;10.774;2023-03-14T11:45:37;0.80;;;0.80;;
39502;SDS011;26970;49.900;10.774;2023-03-14T11:50:34;0.77;;;0.60;;
39502;SDS011;26970;49.900;10.774;2023-03-14T11:53:03;1.05;;;0.75;;
39502;SDS011;26970;49.900;10.774;2023-03-14T11:55:34;1.70;;;0.70;;
39502;SDS011;26970;49.900;10.774;2023-03-14T11:58:03;1.52;;;0.90;;
39502;SDS011;26970;49.900;10.774;2023-03-14T12:00:34;0.50;;;0.50;;
39502;SDS011;26970;49.900;10.774;2023-03-14T12:03:12;1.20;;;0.98;;
39502;SDS011;26970;49.900;10.774;2023-03-14T12:11:28;0.75;;;0.75;;
39502;SDS011;26970;49.900;10.774;2023-03-14T12:13:57;0.75;;;0.70;;
39502;SDS011;26970;49.900;10.774;2023-03-14T12:18:49;1.73;;;1.33;;
39502;SDS011;26970;49.900;10.774;2023-03-14T12:21:16;0.90;;;0.90;;
39502;SDS011;26970;49.900;10.774;2023-03-14T12:23:50;2.47;;;1.50;;
39502;SDS011;26970;49.900;10.774;2023-03-14T12:26:21;1.85;;;1.00;;
39502;SDS011;26970;49.900;10.774;2023-03-14T12:28:52;1.00;;;0.90;;
39502;SDS011;26970;49.900;10.774;2023-03-14T12:31:38;2.47;;;1.20;;
39502;SDS011;26970;49.900;10.774;2023-03-14T12:44:46;0.80;;;0.80;;
39502;SDS011;26970;49.900;10.774;2023-03-14T12:49:46;2.45;;;1.13;;
39502;SDS011;26970;49.900;10.774;2023-03-14T12:52:22;1.70;;;1.02;;
39502;SDS011;26970;49.900;10.774;2023-03-14T12:55:15;0.85;;;0.85;;
39502;SDS011;26970;49.900;10.774;2023-03-14T13:00:38;0.65;;;0.65;;
39502;SDS011;26970;49.900;10.774;2023-03-14T13:03:15;1.63;;;0.77;;
39502;SDS011;26970;49.900;10.774;2023-03-14T13:05:59;0.82;;;0.68;;
39502;SDS011;26970;49.900;10.774;2023-03-14T13:11:04;0.73;;;0.70;;
39502;SDS011;26970;49.900;10.774;2023-03-14T13:13:33;1.02;;;0.85;;
39502;SDS011;26970;49.900;10.774;2023-03-14T13:16:02;1.17;;;1.00;;
39502;SDS011;26970;49.900;10.774;2023-03-14T13:18:41;1.00;;;1.00;;
39502;SDS011;26970;49.900;10.774;2023-03-14T13:21:21;1.67;;;1.00;;
39502;SDS011;26970;49.900;10.774;2023-03-14T13:23:57;2.15;;;1.33;;
39502;SDS011;26970;49.900;10.774;2023-03-14T13:26:38;0.75;;;0.75;;
39502;SDS011;26970;49.900;10.774;2023-03-14T13:31:45;0.90;;;0.90;;
39502;SDS011;26970;49.900;10.774;2023-03-14T13:34:12;0.80;;;0.80;;
39502;SDS011;26970;49.900;10.774;2023-03-14T13:36:38;0.80;;;0.80;;
39502;SDS011;26970;49.900;10.774;2023-03-14T13:39:04;0.90;;;0.90;;
39502;SDS011;26970;49.900;10.774;2023-03-14T13:41:37;2.38;;;1.00;;
39502;SDS011;26970;49.900;10.774;2023-03-14T13:44:05;1.33;;;0.90;;
39502;SDS011;26970;49.900;10.774;2023-03-14T13:46:33;1.40;;;1.10;;
39502;SDS011;26970;49.900;10.774;2023-03-14T13:49:06;0.80;;;0.80;;
39502;SDS011;26970;49.900;10.774;2023-03-14T13:51:37;2.15;;;0.80;;
39502;SDS011;26970;49.900;10.774;2023-03-14T13:54:11;0.93;;;0.93;;
39502;SDS011;26970;49.900;10.774;2023-03-14T13:56:42;1.17;;;1.08;;
39502;SDS011;26970;49.900;10.774;2023-03-14T13:59:30;0.73;;;0.73;;
39502;SDS011;26970;49.900;10.774;2023-03-14T14:01:55;1.10;;;1.00;;
39502;SDS011;26970;49.900;10.774;2023-03-14T14:04:24;2.78;;;1.05;;
39502;SDS011;26970;49.900;10.774;2023-03-14T14:07:01;1.20;;;1.10;;
39502;SDS011;26970;49.900;10.774;2023-03-14T14:09:40;1.65;;;1.25;;
39502;SDS011;26970;49.900;10.774;2023-03-14T14:14:53;0.82;;;0.82;;
39502;SDS011;26970;49.900;10.774;2023-03-14T14:17:40;0.90;;;0.90;;
39502;SDS011;26970;49.900;10.774;2023-03-14T14:20:32;0.93;;;0.90;;
39502;SDS011;26970;49.900;10.774;2023-03-14T14:23:01;0.70;;;0.70;;
39502;SDS011;26970;49.900;10.774;2023-03-14T14:25:38;4.30;;;0.90;;
39502;SDS011;26970;49.900;10.774;2023-03-14T14:31:02;0.40;;;0.40;;
39502;SDS011;26970;49.900;10.774;2023-03-14T14:33:28;0.70;;;0.70;;
39502;SDS011;26970;49.900;10.774;2023-03-14T14:35:54;0.85;;;0.77;;
39502;SDS011;26970;49.900;10.774;2023-03-14T14:38:22;0.70;;;0.70;;
39502;SDS011;26970;49.900;10.774;2023-03-14T14:40:50;0.50;;;0.50;;
39502;SDS011;26970;49.900;10.774;2023-03-14T14:43:22;1.63;;;0.65;;
39502;SDS011;26970;49.900;10.774;2023-03-14T14:45:51;0.50;;;0.50;;
39502;SDS011;26970;49.900;10.774;2023-03-14T14:48:20;1.00;;;1.00;;
39502;SDS011;26970;49.900;10.774;2023-03-14T14:53:34;1.27;;;0.73;;
39502;SDS011;26970;49.900;10.774;2023-03-14T14:56:15;0.90;;;0.82;;
39502;SDS011;26970;49.900;10.774;2023-03-14T14:58:44;0.80;;;0.80;;
39502;SDS011;26970;49.900;10.774;2023-03-14T15:01:12;0.80;;;0.80;;
39502;SDS011;26970;49.900;10.774;2023-03-14T15:03:44;0.80;;;0.80;;
39502;SDS011;26970;49.900;10.774;2023-03-14T15:06:15;1.30;;;1.00;;
39502;SDS011;26970;49.900;10.774;2023-03-14T15:08:42;0.80;;;0.80;;
39502;SDS011;26970;49.900;10.774;2023-03-14T15:11:16;0.82;;;0.82;;
39502;SDS011;26970;49.900;10.774;2023-03-14T15:13:44;0.80;;;0.80;;
39502;SDS011;26970;49.900;10.774;2023-03-14T15:16:10;0.90;;;0.90;;
39502;SDS011;26970;49.900;10.774;2023-03-14T15:18:37;0.80;;;0.80;;
39502;SDS011;26970;49.900;10.774;2023-03-14T15:21:03;1.17;;;1.08;;
39502;SDS011;26970;49.900;10.774;2023-03-14T15:23:28;1.00;;;0.90;;
39502;SDS011;26970;49.900;10.774;2023-03-14T15:25:54;0.80;;;0.80;;
39502;SDS011;26970;49.900;10.774;2023-03-14T15:28:21;1.88;;;1.10;;
39502;SDS011;26970;49.900;10.774;2023-03-14T15:30:54;1.20;;;1.10;;
39502;SDS011;26970;49.900;10.774;2023-03-14T15:33:22;1.15;;;1.05;;
39502;SDS011;26970;49.900;10.774;2023-03-14T15:35:49;1.73;;;1.42;;
39502;SDS011;26970;49.900;10.774;2023-03-14T15:38:16;2.05;;;1.23;;
39502;SDS011;26970;49.900;10.774;2023-03-14T15:40:47;1.98;;;1.27;;
39502;SDS011;26970;49.900;10.774;2023-03-14T15:43:14;2.42;;;1.35;;
39502;SDS011;26970;49.900;10.774;2023-03-14T15:45:39;1.58;;;1.20;;
39502;SDS011;26970;49.900;10.774;2023-03-14T15:48:06;3.25;;;1.20;;
39502;SDS011;26970;49.900;10.774;2023-03-14T15:50:36;1.35;;;1.25;;
39502;SDS011;26970;49.900;10.774;2023-03-14T15:53:02;0.85;;;0.85;;
39502;SDS011;26970;49.900;10.774;2023-03-14T15:55:28;1.00;;;0.90;;
39502;SDS011;26970;49.900;10.774;2023-03-14T15:57:53;1.00;;;1.00;;